sensor_id;sensor_type;location;lat;lon;timestamp;temperature;humidity
66506;HTU21D;53332;51.082;5.832;2023-05-19T00:01:23;12.75;73.47
66506;HTU21D;53332;51.082;5.832;2023-05-19T00:03:54;12.72;74.46
66506;HTU21D;53332;51.082;5.832;2023-05-19T00:06:26;12.70;74.93
66506;HTU21D;53332;51.082;5.832;2023-05-19T00:09:09;12.65;75.17
66506;HTU21D;53332;51.082;5.832;2023-05-19T00:11:37;12.56;75.58
66506;HTU21D;53332;51.082;5.832;2023-05-19T00:14:06;12.51;75.63
66506;HTU21D;53332;51.082;5.832;2023-05-19T00:16:33;12.46;75.79
66506;HTU21D;53332;51.082;5.832;2023-05-19T00:19:00;12.52;75.17
66506;HTU21D;53332;51.082;5.832;2023-05-19T00:21:28;12.49;75.28
66506;HTU21D;53332;51.082;5.832;2023-05-19T00:23:54;12.47;75.18
66506;HTU21D;53332;51.082;5.832;2023-05-19T00:26:20;12.44;75.36
66506;HTU21D;53332;51.082;5.832;2023-05-19T00:28:48;12.44;75.02
66506;HTU21D;53332;51.082;5.832;2023-05-19T00:31:14;12.42;75.52
66506;HTU21D;53332;51.082;5.832;2023-05-19T00:33:40;12.40;76.33
66506;HTU21D;53332;51.082;5.832;2023-05-19T00:36:06;12.41;76.56
66506;HTU21D;53332;51.082;5.832;2023-05-19T00:38:33;12.40;76.73
66506;HTU21D;53332;51.082;5.832;2023-05-19T00:41:00;12.37;76.82
66506;HTU21D;53332;51.082;5.832;2023-05-19T00:43:26;12.34;77.18
66506;HTU21D;53332;51.082;5.832;2023-05-19T00:45:52;12.28;78.01
66506;HTU21D;53332;51.082;5.832;2023-05-19T00:48:17;12.23;78.05
66506;HTU21D;53332;51.082;5.832;2023-05-19T00:50:44;12.21;78.27
66506;HTU21D;53332;51.082;5.832;2023-05-19T00:53:12;12.13;78.89
66506;HTU21D;53332;51.082;5.832;2023-05-19T00:55:39;12.07;79.41
66506;HTU21D;53332;51.082;5.832;2023-05-19T00:58:06;12.06;79.72
66506;HTU21D;53332;51.082;5.832;2023-05-19T01:00:33;12.02;80.21
66506;HTU21D;53332;51.082;5.832;2023-05-19T01:02:59;12.03;80.11
66506;HTU21D;53332;51.082;5.832;2023-05-19T01:05:25;11.99;80.13
66506;HTU21D;53332;51.082;5.832;2023-05-19T01:07:51;11.94;80.06
66506;HTU21D;53332;51.082;5.832;2023-05-19T01:10:21;11.90;79.75
66506;HTU21D;53332;51.082;5.832;2023-05-19T01:12:47;11.87;79.62
66506;HTU21D;53332;51.082;5.832;2023-05-19T01:15:14;11.85;80.11
66506;HTU21D;53332;51.082;5.832;2023-05-19T01:17:58;11.84;79.98
66506;HTU21D;53332;51.082;5.832;2023-05-19T01:20:35;11.78;79.96
66506;HTU21D;53332;51.082;5.832;2023-05-19T01:26:10;11.70;79.08
66506;HTU21D;53332;51.082;5.832;2023-05-19T01:31:22;11.60;79.04
66506;HTU21D;53332;51.082;5.832;2023-05-19T01:33:51;11.58;79.28
66506;HTU21D;53332;51.082;5.832;2023-05-19T01:36:19;11.55;79.26
66506;HTU21D;53332;51.082;5.832;2023-05-19T01:38:49;11.49;79.19
66506;HTU21D;53332;51.082;5.832;2023-05-19T01:41:15;11.46;79.43
66506;HTU21D;53332;51.082;5.832;2023-05-19T01:43:43;11.44;79.38
66506;HTU21D;53332;51.082;5.832;2023-05-19T01:46:10;11.40;80.18
66506;HTU21D;53332;51.082;5.832;2023-05-19T01:48:37;11.36;80.73
66506;HTU21D;53332;51.082;5.832;2023-05-19T01:51:03;11.36;80.82
66506;HTU21D;53332;51.082;5.832;2023-05-19T01:53:29;11.37;80.56
66506;HTU21D;53332;51.082;5.832;2023-05-19T01:55:56;11.40;80.26
66506;HTU21D;53332;51.082;5.832;2023-05-19T01:58:40;11.41;79.91
66506;HTU21D;53332;51.082;5.832;2023-05-19T02:06:20;11.31;80.19
66506;HTU21D;53332;51.082;5.832;2023-05-19T02:09:01;11.26;81.20
66506;HTU21D;53332;51.082;5.832;2023-05-19T02:11:45;11.22;81.91
66506;HTU21D;53332;51.082;5.832;2023-05-19T02:14:29;11.15;82.57
66506;HTU21D;53332;51.082;5.832;2023-05-19T02:16:58;11.14;83.24
66506;HTU21D;53332;51.082;5.832;2023-05-19T02:19:33;11.16;83.46
66506;HTU21D;53332;51.082;5.832;2023-05-19T02:21:58;11.10;83.87
66506;HTU21D;53332;51.082;5.832;2023-05-19T02:24:24;11.07;83.61
66506;HTU21D;53332;51.082;5.832;2023-05-19T02:26:50;11.00;83.75
66506;HTU21D;53332;51.082;5.832;2023-05-19T02:29:16;10.97;83.90
66506;HTU21D;53332;51.082;5.832;2023-05-19T02:31:42;10.92;84.46
66506;HTU21D;53332;51.082;5.832;2023-05-19T02:34:07;10.88;84.55
66506;HTU21D;53332;51.082;5.832;2023-05-19T02:36:34;10.88;84.31
66506;HTU21D;53332;51.082;5.832;2023-05-19T02:39:02;10.88;83.94
66506;HTU21D;53332;51.082;5.832;2023-05-19T02:41:27;10.82;84.68
66506;HTU21D;53332;51.082;5.832;2023-05-19T02:43:53;10.81;85.27
66506;HTU21D;53332;51.082;5.832;2023-05-19T02:46:18;10.79;85.27
66506;HTU21D;53332;51.082;5.832;2023-05-19T02:48:44;10.75;85.44
66506;HTU21D;53332;51.082;5.832;2023-05-19T02:51:09;10.69;85.52
66506;HTU21D;53332;51.082;5.832;2023-05-19T02:53:35;10.68;85.64
66506;HTU21D;53332;51.082;5.832;2023-05-19T02:56:00;10.63;85.74
66506;HTU21D;53332;51.082;5.832;2023-05-19T02:58:26;10.58;86.29
66506;HTU21D;53332;51.082;5.832;2023-05-19T03:00:52;10.56;86.66
66506;HTU21D;53332;51.082;5.832;2023-05-19T03:03:17;10.57;86.96
66506;HTU21D;53332;51.082;5.832;2023-05-19T03:05:42;10.60;86.64
66506;HTU21D;53332;51.082;5.832;2023-05-19T03:08:08;10.58;86.59
66506;HTU21D;53332;51.082;5.832;2023-05-19T03:10:34;10.58;86.18
66506;HTU21D;53332;51.082;5.832;2023-05-19T03:13:00;10.55;85.89
66506;HTU21D;53332;51.082;5.832;2023-05-19T03:15:25;10.54;85.81
66506;HTU21D;53332;51.082;5.832;2023-05-19T03:17:50;10.53;85.70
66506;HTU21D;53332;51.082;5.832;2023-05-19T03:20:17;10.53;85.56
66506;HTU21D;53332;51.082;5.832;2023-05-19T03:22:42;10.49;85.96
66506;HTU21D;53332;51.082;5.832;2023-05-19T03:25:08;10.45;86.29
66506;HTU21D;53332;51.082;5.832;2023-05-19T03:27:34;10.43;86.09
66506;HTU21D;53332;51.082;5.832;2023-05-19T03:30:00;10.37;86.75
66506;HTU21D;53332;51.082;5.832;2023-05-19T03:32:25;10.39;87.01
66506;HTU21D;53332;51.082;5.832;2023-05-19T03:34:51;10.37;87.11
66506;HTU21D;53332;51.082;5.832;2023-05-19T03:37:16;10.37;87.25
66506;HTU21D;53332;51.082;5.832;2023-05-19T03:39:42;10.36;87.41
66506;HTU21D;53332;51.082;5.832;2023-05-19T03:42:07;10.33;87.69
66506;HTU21D;53332;51.082;5.832;2023-05-19T03:44:33;10.33;87.73
66506;HTU21D;53332;51.082;5.832;2023-05-19T03:46:58;10.29;88.02
66506;HTU21D;53332;51.082;5.832;2023-05-19T03:49:24;10.26;88.76
66506;HTU21D;53332;51.082;5.832;2023-05-19T03:51:49;10.25;89.56
66506;HTU21D;53332;51.082;5.832;2023-05-19T03:54:15;10.27;89.95
66506;HTU21D;53332;51.082;5.832;2023-05-19T03:56:41;10.31;89.54
66506;HTU21D;53332;51.082;5.832;2023-05-19T03:59:07;10.33;89.05
66506;HTU21D;53332;51.082;5.832;2023-05-19T04:01:35;10.31;88.93
66506;HTU21D;53332;51.082;5.832;2023-05-19T04:04:01;10.26;89.67
66506;HTU21D;53332;51.082;5.832;2023-05-19T04:06:26;10.26;90.66
66506;HTU21D;53332;51.082;5.832;2023-05-19T04:08:52;10.28;90.51
66506;HTU21D;53332;51.082;5.832;2023-05-19T04:11:17;10.29;90.39
66506;HTU21D;53332;51.082;5.832;2023-05-19T04:13:44;10.24;90.69
66506;HTU21D;53332;51.082;5.832;2023-05-19T04:16:10;10.25;90.90
66506;HTU21D;53332;51.082;5.832;2023-05-19T04:18:36;10.29;90.86
66506;HTU21D;53332;51.082;5.832;2023-05-19T04:21:01;10.30;90.89
66506;HTU21D;53332;51.082;5.832;2023-05-19T04:23:27;10.31;91.11
66506;HTU21D;53332;51.082;5.832;2023-05-19T04:25:52;10.30;91.23
66506;HTU21D;53332;51.082;5.832;2023-05-19T04:28:18;10.28;91.23
66506;HTU21D;53332;51.082;5.832;2023-05-19T04:30:44;10.29;91.15
66506;HTU21D;53332;51.082;5.832;2023-05-19T04:33:11;10.34;91.47
66506;HTU21D;53332;51.082;5.832;2023-05-19T04:35:37;10.38;91.51
66506;HTU21D;53332;51.082;5.832;2023-05-19T04:38:04;10.43;91.82
66506;HTU21D;53332;51.082;5.832;2023-05-19T04:40:30;10.46;92.00
66506;HTU21D;53332;51.082;5.832;2023-05-19T04:42:56;10.51;91.98
66506;HTU21D;53332;51.082;5.832;2023-05-19T04:45:22;10.56;92.08
66506;HTU21D;53332;51.082;5.832;2023-05-19T04:47:50;10.57;92.20
66506;HTU21D;53332;51.082;5.832;2023-05-19T04:50:16;10.65;92.46
66506;HTU21D;53332;51.082;5.832;2023-05-19T04:52:42;10.71;92.03
66506;HTU21D;53332;51.082;5.832;2023-05-19T04:55:10;10.74;91.89
66506;HTU21D;53332;51.082;5.832;2023-05-19T04:57:35;10.81;91.99
66506;HTU21D;53332;51.082;5.832;2023-05-19T05:00:02;10.89;91.76
66506;HTU21D;53332;51.082;5.832;2023-05-19T05:02:31;10.96;91.68
66506;HTU21D;53332;51.082;5.832;2023-05-19T05:04:58;11.02;91.53
66506;HTU21D;53332;51.082;5.832;2023-05-19T05:07:24;11.03;91.79
66506;HTU21D;53332;51.082;5.832;2023-05-19T05:09:50;11.10;92.11
66506;HTU21D;53332;51.082;5.832;2023-05-19T05:12:17;11.16;92.43
66506;HTU21D;53332;51.082;5.832;2023-05-19T05:14:43;11.24;92.35
66506;HTU21D;53332;51.082;5.832;2023-05-19T05:17:10;11.30;92.25
66506;HTU21D;53332;51.082;5.832;2023-05-19T05:19:36;11.36;92.05
66506;HTU21D;53332;51.082;5.832;2023-05-19T05:22:02;11.42;91.92
66506;HTU21D;53332;51.082;5.832;2023-05-19T05:24:28;11.48;91.78
66506;HTU21D;53332;51.082;5.832;2023-05-19T05:26:54;11.47;91.15
66506;HTU21D;53332;51.082;5.832;2023-05-19T05:29:19;11.51;90.94
66506;HTU21D;53332;51.082;5.832;2023-05-19T05:31:45;11.53;90.56
66506;HTU21D;53332;51.082;5.832;2023-05-19T05:34:11;11.55;90.38
66506;HTU21D;53332;51.082;5.832;2023-05-19T05:36:36;11.57;90.50
66506;HTU21D;53332;51.082;5.832;2023-05-19T05:39:02;11.60;90.43
66506;HTU21D;53332;51.082;5.832;2023-05-19T05:41:28;11.64;90.58
66506;HTU21D;53332;51.082;5.832;2023-05-19T05:44:02;11.72;90.14
66506;HTU21D;53332;51.082;5.832;2023-05-19T05:46:28;11.76;90.31
66506;HTU21D;53332;51.082;5.832;2023-05-19T05:48:53;11.78;90.60
66506;HTU21D;53332;51.082;5.832;2023-05-19T05:51:20;11.78;91.02
66506;HTU21D;53332;51.082;5.832;2023-05-19T05:53:51;11.85;90.28
66506;HTU21D;53332;51.082;5.832;2023-05-19T05:56:18;11.91;90.34
66506;HTU21D;53332;51.082;5.832;2023-05-19T05:58:43;11.99;89.75
66506;HTU21D;53332;51.082;5.832;2023-05-19T06:01:09;12.04;89.45
66506;HTU21D;53332;51.082;5.832;2023-05-19T06:03:39;12.15;89.60
66506;HTU21D;53332;51.082;5.832;2023-05-19T06:06:05;12.17;89.18
66506;HTU21D;53332;51.082;5.832;2023-05-19T06:08:31;12.16;87.92
66506;HTU21D;53332;51.082;5.832;2023-05-19T06:10:57;12.21;87.81
66506;HTU21D;53332;51.082;5.832;2023-05-19T06:13:23;12.26;87.31
66506;HTU21D;53332;51.082;5.832;2023-05-19T06:15:50;12.35;87.68
66506;HTU21D;53332;51.082;5.832;2023-05-19T06:18:16;12.45;87.37
66506;HTU21D;53332;51.082;5.832;2023-05-19T06:20:42;12.53;86.62
66506;HTU21D;53332;51.082;5.832;2023-05-19T06:23:07;12.64;86.83
66506;HTU21D;53332;51.082;5.832;2023-05-19T06:25:33;12.73;86.74
66506;HTU21D;53332;51.082;5.832;2023-05-19T06:27:58;12.80;86.13
66506;HTU21D;53332;51.082;5.832;2023-05-19T06:30:24;12.86;85.55
66506;HTU21D;53332;51.082;5.832;2023-05-19T06:32:50;12.92;85.56
66506;HTU21D;53332;51.082;5.832;2023-05-19T06:35:15;12.99;84.57
66506;HTU21D;53332;51.082;5.832;2023-05-19T06:37:41;13.10;82.89
66506;HTU21D;53332;51.082;5.832;2023-05-19T06:40:07;13.29;82.52
66506;HTU21D;53332;51.082;5.832;2023-05-19T06:42:33;13.47;81.85
66506;HTU21D;53332;51.082;5.832;2023-05-19T06:44:58;13.73;81.59
66506;HTU21D;53332;51.082;5.832;2023-05-19T06:47:24;14.03;81.14
66506;HTU21D;53332;51.082;5.832;2023-05-19T06:49:50;14.36;80.17
66506;HTU21D;53332;51.082;5.832;2023-05-19T06:52:20;14.67;78.17
66506;HTU21D;53332;51.082;5.832;2023-05-19T06:54:46;15.01;76.04
66506;HTU21D;53332;51.082;5.832;2023-05-19T06:57:11;15.34;75.02
66506;HTU21D;53332;51.082;5.832;2023-05-19T06:59:36;15.68;73.11
66506;HTU21D;53332;51.082;5.832;2023-05-19T07:02:06;16.00;71.71
66506;HTU21D;53332;51.082;5.832;2023-05-19T07:04:31;16.24;71.22
66506;HTU21D;53332;51.082;5.832;2023-05-19T07:06:57;16.57;69.12
66506;HTU21D;53332;51.082;5.832;2023-05-19T07:09:22;16.84;68.77
66506;HTU21D;53332;51.082;5.832;2023-05-19T07:11:48;17.10;67.77
66506;HTU21D;53332;51.082;5.832;2023-05-19T07:14:13;17.36;64.37
66506;HTU21D;53332;51.082;5.832;2023-05-19T07:16:39;17.65;63.18
66506;HTU21D;53332;51.082;5.832;2023-05-19T07:19:05;17.97;60.28
66506;HTU21D;53332;51.082;5.832;2023-05-19T07:21:30;18.20;59.11
66506;HTU21D;53332;51.082;5.832;2023-05-19T07:23:56;18.35;57.22
66506;HTU21D;53332;51.082;5.832;2023-05-19T07:26:21;18.49;56.31
66506;HTU21D;53332;51.082;5.832;2023-05-19T07:28:47;18.63;56.71
66506;HTU21D;53332;51.082;5.832;2023-05-19T07:31:12;18.87;55.93
66506;HTU21D;53332;51.082;5.832;2023-05-19T07:33:38;19.11;54.28
66506;HTU21D;53332;51.082;5.832;2023-05-19T07:36:03;19.36;53.31
66506;HTU21D;53332;51.082;5.832;2023-05-19T07:38:29;19.51;52.85
66506;HTU21D;53332;51.082;5.832;2023-05-19T07:40:58;19.60;52.66
66506;HTU21D;53332;51.082;5.832;2023-05-19T07:43:24;19.76;51.56
66506;HTU21D;53332;51.082;5.832;2023-05-19T07:45:49;19.91;50.99
66506;HTU21D;53332;51.082;5.832;2023-05-19T07:48:15;19.94;50.72
66506;HTU21D;53332;51.082;5.832;2023-05-19T07:50:43;19.95;51.08
66506;HTU21D;53332;51.082;5.832;2023-05-19T07:53:08;20.06;50.66
66506;HTU21D;53332;51.082;5.832;2023-05-19T07:55:33;20.15;50.59
66506;HTU21D;53332;51.082;5.832;2023-05-19T07:57:59;20.17;51.22
66506;HTU21D;53332;51.082;5.832;2023-05-19T08:00:24;20.10;51.29
66506;HTU21D;53332;51.082;5.832;2023-05-19T08:02:50;19.90;51.59
66506;HTU21D;53332;51.082;5.832;2023-05-19T08:05:17;20.06;50.62
66506;HTU21D;53332;51.082;5.832;2023-05-19T08:07:43;20.21;49.29
66506;HTU21D;53332;51.082;5.832;2023-05-19T08:10:08;20.29;48.07
66506;HTU21D;53332;51.082;5.832;2023-05-19T08:12:34;20.05;47.19
66506;HTU21D;53332;51.082;5.832;2023-05-19T08:14:59;19.99;47.74
66506;HTU21D;53332;51.082;5.832;2023-05-19T08:17:25;19.99;47.51
66506;HTU21D;53332;51.082;5.832;2023-05-19T08:19:50;20.02;47.18
66506;HTU21D;53332;51.082;5.832;2023-05-19T08:22:16;20.07;46.89
66506;HTU21D;53332;51.082;5.832;2023-05-19T08:24:41;20.10;46.63
66506;HTU21D;53332;51.082;5.832;2023-05-19T08:27:07;20.12;46.32
66506;HTU21D;53332;51.082;5.832;2023-05-19T08:29:33;20.17;45.89
66506;HTU21D;53332;51.082;5.832;2023-05-19T08:31:58;20.31;46.63
66506;HTU21D;53332;51.082;5.832;2023-05-19T08:34:24;20.40;46.85
66506;HTU21D;53332;51.082;5.832;2023-05-19T08:36:50;20.34;47.68
66506;HTU21D;53332;51.082;5.832;2023-05-19T08:39:15;20.39;47.22
66506;HTU21D;53332;51.082;5.832;2023-05-19T08:41:43;20.30;46.58
66506;HTU21D;53332;51.082;5.832;2023-05-19T08:44:09;20.33;47.47
66506;HTU21D;53332;51.082;5.832;2023-05-19T08:46:34;20.30;47.44
66506;HTU21D;53332;51.082;5.832;2023-05-19T08:49:10;20.34;48.39
66506;HTU21D;53332;51.082;5.832;2023-05-19T08:54:14;20.22;49.60
66506;HTU21D;53332;51.082;5.832;2023-05-19T08:56:42;20.30;50.43
66506;HTU21D;53332;51.082;5.832;2023-05-19T08:59:08;20.28;50.29
66506;HTU21D;53332;51.082;5.832;2023-05-19T09:01:34;20.26;49.84
66506;HTU21D;53332;51.082;5.832;2023-05-19T09:04:02;20.30;50.07
66506;HTU21D;53332;51.082;5.832;2023-05-19T09:06:28;20.37;48.15
66506;HTU21D;53332;51.082;5.832;2023-05-19T09:08:56;20.44;49.13
66506;HTU21D;53332;51.082;5.832;2023-05-19T09:11:22;20.41;48.63
66506;HTU21D;53332;51.082;5.832;2023-05-19T09:13:48;20.49;47.47
66506;HTU21D;53332;51.082;5.832;2023-05-19T09:16:14;20.56;46.73
66506;HTU21D;53332;51.082;5.832;2023-05-19T09:18:53;20.54;47.86
66506;HTU21D;53332;51.082;5.832;2023-05-19T09:21:19;20.54;48.57
66506;HTU21D;53332;51.082;5.832;2023-05-19T09:23:46;20.62;48.89
66506;HTU21D;53332;51.082;5.832;2023-05-19T09:26:14;20.72;48.33
66506;HTU21D;53332;51.082;5.832;2023-05-19T09:28:39;20.89;47.15
66506;HTU21D;53332;51.082;5.832;2023-05-19T09:31:09;20.92;46.66
66506;HTU21D;53332;51.082;5.832;2023-05-19T09:33:37;20.98;45.54
66506;HTU21D;53332;51.082;5.832;2023-05-19T09:36:03;21.05;44.83
66506;HTU21D;53332;51.082;5.832;2023-05-19T09:38:38;21.02;43.77
66506;HTU21D;53332;51.082;5.832;2023-05-19T09:41:05;21.08;43.61
66506;HTU21D;53332;51.082;5.832;2023-05-19T09:43:32;21.08;42.74
66506;HTU21D;53332;51.082;5.832;2023-05-19T09:46:01;21.00;42.17
66506;HTU21D;53332;51.082;5.832;2023-05-19T09:48:27;20.73;42.62
66506;HTU21D;53332;51.082;5.832;2023-05-19T09:50:54;20.64;43.80
66506;HTU21D;53332;51.082;5.832;2023-05-19T09:53:21;20.64;43.15
66506;HTU21D;53332;51.082;5.832;2023-05-19T09:55:50;20.61;43.55
66506;HTU21D;53332;51.082;5.832;2023-05-19T09:58:19;20.59;42.74
66506;HTU21D;53332;51.082;5.832;2023-05-19T10:00:46;20.64;42.68
66506;HTU21D;53332;51.082;5.832;2023-05-19T10:03:13;20.76;42.86
66506;HTU21D;53332;51.082;5.832;2023-05-19T10:05:41;20.73;44.17
66506;HTU21D;53332;51.082;5.832;2023-05-19T10:08:08;20.76;43.19
66506;HTU21D;53332;51.082;5.832;2023-05-19T10:10:36;20.85;43.65
66506;HTU21D;53332;51.082;5.832;2023-05-19T10:13:02;20.96;42.80
66506;HTU21D;53332;51.082;5.832;2023-05-19T10:15:31;21.08;42.09
66506;HTU21D;53332;51.082;5.832;2023-05-19T10:17:58;20.89;41.13
66506;HTU21D;53332;51.082;5.832;2023-05-19T10:20:25;20.78;41.71
66506;HTU21D;53332;51.082;5.832;2023-05-19T10:22:51;20.73;41.84
66506;HTU21D;53332;51.082;5.832;2023-05-19T10:25:16;20.61;42.23
66506;HTU21D;53332;51.082;5.832;2023-05-19T10:28:08;20.62;41.79
66506;HTU21D;53332;51.082;5.832;2023-05-19T10:30:40;20.78;43.38
66506;HTU21D;53332;51.082;5.832;2023-05-19T10:33:09;20.96;43.71
66506;HTU21D;53332;51.082;5.832;2023-05-19T10:41:01;21.10;41.25
66506;HTU21D;53332;51.082;5.832;2023-05-19T10:46:00;21.25;40.13
66506;HTU21D;53332;51.082;5.832;2023-05-19T10:48:32;21.37;39.93
66506;HTU21D;53332;51.082;5.832;2023-05-19T10:50:58;21.53;40.94
66506;HTU21D;53332;51.082;5.832;2023-05-19T10:53:30;21.58;40.80
66506;HTU21D;53332;51.082;5.832;2023-05-19T10:55:56;21.55;39.97
66506;HTU21D;53332;51.082;5.832;2023-05-19T10:58:40;21.50;39.68
66506;HTU21D;53332;51.082;5.832;2023-05-19T11:01:14;21.47;39.23
66506;HTU21D;53332;51.082;5.832;2023-05-19T11:03:52;21.47;38.51
66506;HTU21D;53332;51.082;5.832;2023-05-19T11:06:30;21.54;38.20
66506;HTU21D;53332;51.082;5.832;2023-05-19T11:09:01;21.74;39.56
66506;HTU21D;53332;51.082;5.832;2023-05-19T11:11:48;21.79;38.71
66506;HTU21D;53332;51.082;5.832;2023-05-19T11:14:17;21.63;37.62
66506;HTU21D;53332;51.082;5.832;2023-05-19T11:16:46;21.53;38.06
66506;HTU21D;53332;51.082;5.832;2023-05-19T11:19:17;21.39;37.71
66506;HTU21D;53332;51.082;5.832;2023-05-19T11:21:51;21.43;38.00
66506;HTU21D;53332;51.082;5.832;2023-05-19T11:24:42;21.52;38.17
66506;HTU21D;53332;51.082;5.832;2023-05-19T11:27:28;21.57;38.78
66506;HTU21D;53332;51.082;5.832;2023-05-19T11:30:00;21.73;39.18
66506;HTU21D;53332;51.082;5.832;2023-05-19T11:32:34;21.80;37.91
66506;HTU21D;53332;51.082;5.832;2023-05-19T11:35:03;21.79;38.30
66506;HTU21D;53332;51.082;5.832;2023-05-19T11:37:31;21.85;38.37
66506;HTU21D;53332;51.082;5.832;2023-05-19T11:39:59;21.87;38.05
66506;HTU21D;53332;51.082;5.832;2023-05-19T11:42:25;21.80;36.84
66506;HTU21D;53332;51.082;5.832;2023-05-19T11:44:54;21.81;37.51
66506;HTU21D;53332;51.082;5.832;2023-05-19T11:47:20;21.87;38.14
66506;HTU21D;53332;51.082;5.832;2023-05-19T11:49:50;22.06;39.04
66506;HTU21D;53332;51.082;5.832;2023-05-19T11:52:22;22.17;37.90
66506;HTU21D;53332;51.082;5.832;2023-05-19T11:54:48;22.19;37.56
66506;HTU21D;53332;51.082;5.832;2023-05-19T11:57:14;22.27;37.33
66506;HTU21D;53332;51.082;5.832;2023-05-19T11:59:40;22.37;37.26
66506;HTU21D;53332;51.082;5.832;2023-05-19T12:02:20;22.33;36.63
66506;HTU21D;53332;51.082;5.832;2023-05-19T12:04:47;22.25;37.03
66506;HTU21D;53332;51.082;5.832;2023-05-19T12:07:22;22.25;38.88
66506;HTU21D;53332;51.082;5.832;2023-05-19T12:09:49;22.25;39.32
66506;HTU21D;53332;51.082;5.832;2023-05-19T12:12:20;22.23;39.33
66506;HTU21D;53332;51.082;5.832;2023-05-19T12:14:46;22.14;38.46
66506;HTU21D;53332;51.082;5.832;2023-05-19T12:17:13;22.06;38.49
66506;HTU21D;53332;51.082;5.832;2023-05-19T12:19:42;22.19;39.04
66506;HTU21D;53332;51.082;5.832;2023-05-19T12:22:09;22.22;39.73
66506;HTU21D;53332;51.082;5.832;2023-05-19T12:24:36;22.34;40.13
66506;HTU21D;53332;51.082;5.832;2023-05-19T12:27:15;22.41;39.72
66506;HTU21D;53332;51.082;5.832;2023-05-19T12:29:41;22.33;39.36
66506;HTU21D;53332;51.082;5.832;2023-05-19T12:32:07;22.23;38.92
66506;HTU21D;53332;51.082;5.832;2023-05-19T12:34:37;22.14;38.94
66506;HTU21D;53332;51.082;5.832;2023-05-19T12:37:04;22.19;39.17
66506;HTU21D;53332;51.082;5.832;2023-05-19T12:39:30;22.22;39.59
66506;HTU21D;53332;51.082;5.832;2023-05-19T12:42:06;22.27;39.69
66506;HTU21D;53332;51.082;5.832;2023-05-19T12:44:48;22.36;39.30
66506;HTU21D;53332;51.082;5.832;2023-05-19T12:47:16;22.47;38.45
66506;HTU21D;53332;51.082;5.832;2023-05-19T12:52:23;22.36;37.66
66506;HTU21D;53332;51.082;5.832;2023-05-19T12:54:49;22.31;37.55
66506;HTU21D;53332;51.082;5.832;2023-05-19T12:57:16;22.22;38.16
66506;HTU21D;53332;51.082;5.832;2023-05-19T12:59:42;22.16;38.22
66506;HTU21D;53332;51.082;5.832;2023-05-19T13:02:07;22.24;37.82
66506;HTU21D;53332;51.082;5.832;2023-05-19T13:04:33;22.32;37.43
66506;HTU21D;53332;51.082;5.832;2023-05-19T13:06:58;22.25;37.03
66506;HTU21D;53332;51.082;5.832;2023-05-19T13:09:24;22.25;36.53
66506;HTU21D;53332;51.082;5.832;2023-05-19T13:11:49;22.32;35.93
66506;HTU21D;53332;51.082;5.832;2023-05-19T13:14:19;22.41;37.36
66506;HTU21D;53332;51.082;5.832;2023-05-19T13:16:45;22.49;37.99
66506;HTU21D;53332;51.082;5.832;2023-05-19T13:19:16;22.52;37.21
66506;HTU21D;53332;51.082;5.832;2023-05-19T13:21:42;22.38;36.25
66506;HTU21D;53332;51.082;5.832;2023-05-19T13:24:08;22.24;36.79
66506;HTU21D;53332;51.082;5.832;2023-05-19T13:26:34;22.36;37.48
66506;HTU21D;53332;51.082;5.832;2023-05-19T13:29:00;22.51;37.86
66506;HTU21D;53332;51.082;5.832;2023-05-19T13:31:26;22.48;37.00
66506;HTU21D;53332;51.082;5.832;2023-05-19T13:33:52;22.36;36.95
66506;HTU21D;53332;51.082;5.832;2023-05-19T13:36:17;22.37;36.74
66506;HTU21D;53332;51.082;5.832;2023-05-19T13:38:43;22.40;36.03
66506;HTU21D;53332;51.082;5.832;2023-05-19T13:41:08;22.51;37.70
66506;HTU21D;53332;51.082;5.832;2023-05-19T13:43:34;22.60;37.93
66506;HTU21D;53332;51.082;5.832;2023-05-19T13:45:59;22.67;36.84
66506;HTU21D;53332;51.082;5.832;2023-05-19T13:48:25;22.56;36.20
66506;HTU21D;53332;51.082;5.832;2023-05-19T13:50:50;22.34;35.73
66506;HTU21D;53332;51.082;5.832;2023-05-19T13:53:18;22.22;36.73
66506;HTU21D;53332;51.082;5.832;2023-05-19T13:55:44;22.31;35.89
66506;HTU21D;53332;51.082;5.832;2023-05-19T13:58:09;22.22;36.20
66506;HTU21D;53332;51.082;5.832;2023-05-19T14:00:35;22.20;37.34
66506;HTU21D;53332;51.082;5.832;2023-05-19T14:03:01;22.32;38.43
66506;HTU21D;53332;51.082;5.832;2023-05-19T14:05:26;22.39;37.98
66506;HTU21D;53332;51.082;5.832;2023-05-19T14:07:53;22.38;37.46
66506;HTU21D;53332;51.082;5.832;2023-05-19T14:10:19;22.42;37.64
66506;HTU21D;53332;51.082;5.832;2023-05-19T14:12:45;22.50;38.37
66506;HTU21D;53332;51.082;5.832;2023-05-19T14:15:10;22.48;38.29
66506;HTU21D;53332;51.082;5.832;2023-05-19T14:17:36;22.40;38.66
66506;HTU21D;53332;51.082;5.832;2023-05-19T14:20:02;22.46;39.08
66506;HTU21D;53332;51.082;5.832;2023-05-19T14:22:27;22.37;38.73
66506;HTU21D;53332;51.082;5.832;2023-05-19T14:24:54;22.32;39.31
66506;HTU21D;53332;51.082;5.832;2023-05-19T14:27:19;22.38;39.34
66506;HTU21D;53332;51.082;5.832;2023-05-19T14:29:45;22.49;39.83
66506;HTU21D;53332;51.082;5.832;2023-05-19T14:32:10;22.52;39.52
66506;HTU21D;53332;51.082;5.832;2023-05-19T14:34:36;22.49;39.57
66506;HTU21D;53332;51.082;5.832;2023-05-19T14:37:01;22.57;40.57
66506;HTU21D;53332;51.082;5.832;2023-05-19T14:39:28;22.65;39.62
66506;HTU21D;53332;51.082;5.832;2023-05-19T14:41:54;22.61;40.23
66506;HTU21D;53332;51.082;5.832;2023-05-19T14:44:20;22.52;38.93
66506;HTU21D;53332;51.082;5.832;2023-05-19T14:46:46;22.32;38.01
66506;HTU21D;53332;51.082;5.832;2023-05-19T14:49:11;22.19;38.59
66506;HTU21D;53332;51.082;5.832;2023-05-19T14:51:36;22.24;39.52
66506;HTU21D;53332;51.082;5.832;2023-05-19T14:54:02;22.31;39.53
66506;HTU21D;53332;51.082;5.832;2023-05-19T14:56:27;22.28;39.07
66506;HTU21D;53332;51.082;5.832;2023-05-19T14:58:53;22.26;39.24
66506;HTU21D;53332;51.082;5.832;2023-05-19T15:01:19;22.35;39.72
66506;HTU21D;53332;51.082;5.832;2023-05-19T15:03:44;22.42;39.89
66506;HTU21D;53332;51.082;5.832;2023-05-19T15:06:09;22.42;39.50
66506;HTU21D;53332;51.082;5.832;2023-05-19T15:08:35;22.40;38.88
66506;HTU21D;53332;51.082;5.832;2023-05-19T15:11:02;22.41;38.36
66506;HTU21D;53332;51.082;5.832;2023-05-19T15:13:28;22.46;37.80
66506;HTU21D;53332;51.082;5.832;2023-05-19T15:15:54;22.35;38.05
66506;HTU21D;53332;51.082;5.832;2023-05-19T15:18:20;22.31;37.88
66506;HTU21D;53332;51.082;5.832;2023-05-19T15:20:45;22.25;37.32
66506;HTU21D;53332;51.082;5.832;2023-05-19T15:23:11;22.21;38.22
66506;HTU21D;53332;51.082;5.832;2023-05-19T15:25:37;22.16;38.78
66506;HTU21D;53332;51.082;5.832;2023-05-19T15:28:02;22.05;38.38
66506;HTU21D;53332;51.082;5.832;2023-05-19T15:30:28;21.91;38.02
66506;HTU21D;53332;51.082;5.832;2023-05-19T15:32:54;21.72;37.50
66506;HTU21D;53332;51.082;5.832;2023-05-19T15:35:19;21.53;37.75
66506;HTU21D;53332;51.082;5.832;2023-05-19T15:37:45;21.43;38.28
66506;HTU21D;53332;51.082;5.832;2023-05-19T15:40:10;21.49;39.55